createdAt,value
2019-01-26T00:01:34.279Z,51.37
2019-01-26T00:04:03.197Z,72.35
2019-01-26T00:06:32.188Z,67.90
2019-01-26T00:09:01.488Z,56.08
2019-01-26T00:11:30.377Z,45.70
2019-01-26T00:13:59.374Z,63.40
2019-01-26T00:16:28.363Z,62.62
2019-01-26T00:18:56.991Z,70.52
2019-01-26T00:21:25.681Z,67.82
2019-01-26T00:23:54.633Z,65.92
2019-01-26T00:26:23.624Z,74.67
2019-01-26T00:28:52.266Z,84.75
2019-01-26T00:31:20.992Z,81.42
2019-01-26T00:33:49.990Z,71.60
2019-01-26T00:36:18.981Z,86.65
2019-01-26T00:38:47.872Z,93.12
2019-01-26T00:41:16.870Z,71.53
2019-01-26T00:43:45.876Z,87.10
2019-01-26T00:46:14.857Z,77.90
2019-01-26T00:48:43.531Z,87.27
2019-01-26T00:51:17.095Z,78.30
2019-01-26T00:53:42.981Z,86.82
2019-01-26T00:56:12.056Z,83.60
2019-01-26T00:58:41.058Z,93.05
2019-01-26T01:01:10.154Z,78.37
2019-01-26T01:03:39.226Z,91.53
2019-01-26T01:06:07.973Z,79.05
2019-01-26T01:08:37.030Z,92.30
2019-01-26T01:11:05.752Z,87.62
2019-01-26T01:13:34.709Z,93.65
2019-01-26T01:16:03.907Z,79.42
2019-01-26T01:18:32.710Z,83.55
2019-01-26T01:21:01.897Z,89.80
2019-01-26T01:23:30.702Z,86.42
2019-01-26T01:25:59.678Z,90.50
2019-01-26T01:28:28.671Z,90.28
2019-01-26T01:30:58.075Z,102.15
2019-01-26T01:33:36.828Z,91.97
2019-01-26T01:36:05.556Z,94.62
2019-01-26T01:38:34.578Z,95.32
2019-01-26T01:41:03.205Z,92.02
2019-01-26T01:43:32.153Z,107.55
2019-01-26T01:46:00.782Z,77.30
2019-01-26T01:48:30.038Z,94.90
2019-01-26T01:50:59.031Z,90.85
2019-01-26T01:53:28.040Z,93.92
2019-01-26T01:55:57.021Z,98.97
2019-01-26T01:58:25.684Z,89.77
2019-01-26T02:00:54.700Z,98.92
2019-01-26T02:03:23.731Z,98.78
2019-01-26T02:05:52.469Z,99.07
2019-01-26T02:08:21.375Z,99.13
2019-01-26T02:10:50.097Z,94.25
2019-01-26T02:13:18.747Z,89.67
2019-01-26T02:15:47.639Z,100.18
2019-01-26T02:18:16.278Z,107.30
2019-01-26T02:20:44.986Z,88.25
2019-01-26T02:23:13.902Z,101.00
2019-01-26T02:25:42.850Z,100.82
2019-01-26T02:28:11.471Z,98.80
2019-01-26T02:30:40.470Z,110.28
2019-01-26T02:33:09.113Z,111.08
2019-01-26T02:35:37.823Z,93.65
2019-01-26T02:38:06.761Z,103.10
2019-01-26T02:40:35.909Z,96.00
2019-01-26T02:43:04.548Z,112.88
2019-01-26T02:45:33.297Z,106.05
2019-01-26T02:48:02.202Z,97.20
2019-01-26T02:50:30.904Z,114.28
2019-01-26T02:52:59.647Z,101.18
2019-01-26T02:55:28.571Z,99.35
2019-01-26T02:57:57.564Z,103.65
2019-01-26T03:00:26.291Z,98.15
2019-01-26T03:02:55.549Z,105.55
2019-01-26T03:05:24.212Z,114.15
2019-01-26T03:07:52.895Z,106.40
2019-01-26T03:10:23.041Z,105.43
2019-01-26T03:12:52.041Z,106.67
2019-01-26T03:15:22.027Z,99.85
2019-01-26T03:17:51.251Z,112.35
2019-01-26T03:20:19.946Z,83.15
2019-01-26T03:22:49.245Z,99.97
2019-01-26T03:25:18.260Z,97.95
2019-01-26T03:27:47.123Z,87.22
2019-01-26T03:30:18.252Z,105.20
2019-01-26T03:32:46.919Z,100.12
2019-01-26T03:35:15.702Z,99.80
2019-01-26T03:37:44.417Z,108.30
2019-01-26T03:40:14.362Z,106.27
2019-01-26T03:42:43.133Z,109.32
2019-01-26T03:45:13.054Z,103.40
2019-01-26T03:47:41.952Z,120.65
2019-01-26T03:50:11.536Z,100.30
2019-01-26T03:52:40.524Z,109.70
2019-01-26T03:55:10.884Z,109.20
2019-01-26T03:57:39.966Z,121.30
2019-01-26T04:00:18.260Z,117.40
2019-01-26T04:02:47.284Z,102.92
2019-01-26T04:05:16.575Z,112.88
2019-01-26T04:07:45.671Z,103.12
2019-01-26T04:10:14.501Z,114.28
2019-01-26T04:12:43.285Z,116.85
2019-01-26T04:15:13.057Z,122.58
2019-01-26T04:17:42.463Z,126.33
2019-01-26T04:20:13.983Z,125.55
2019-01-26T04:22:42.715Z,119.67
2019-01-26T04:25:11.807Z,129.75
2019-01-26T04:27:40.476Z,115.20
2019-01-26T04:30:12.345Z,116.42
2019-01-26T04:32:41.009Z,116.42
2019-01-26T04:35:09.975Z,128.95
2019-01-26T04:37:39.019Z,120.60
2019-01-26T04:40:10.501Z,125.75
2019-01-26T04:42:39.614Z,122.90
2019-01-26T04:45:11.886Z,126.82
2019-01-26T04:47:40.500Z,138.97
2019-01-26T04:50:11.565Z,125.27
2019-01-26T04:52:40.459Z,137.97
2019-01-26T04:55:11.398Z,138.62
2019-01-26T04:57:40.508Z,145.40
2019-01-26T05:00:13.861Z,144.62
2019-01-26T05:02:42.495Z,144.22
2019-01-26T05:05:11.408Z,129.10
2019-01-26T05:07:40.028Z,141.97
2019-01-26T05:10:10.707Z,133.45
2019-01-26T05:12:39.344Z,158.37
2019-01-26T05:15:09.081Z,130.90
2019-01-26T05:17:39.503Z,158.75
2019-01-26T05:20:11.354Z,172.07
2019-01-26T05:22:40.017Z,150.50
2019-01-26T05:25:09.053Z,138.92
2019-01-26T05:27:37.732Z,157.50
2019-01-26T05:30:10.007Z,157.07
2019-01-26T05:32:38.854Z,139.60
2019-01-26T05:35:07.651Z,171.10
2019-01-26T05:37:36.882Z,150.15
2019-01-26T05:40:07.924Z,158.42
2019-01-26T05:42:36.890Z,158.35
2019-01-26T05:45:07.125Z,143.05
2019-01-26T05:47:35.805Z,151.45
2019-01-26T05:50:06.562Z,161.03
2019-01-26T05:52:35.454Z,150.15
2019-01-26T05:55:04.730Z,152.35
2019-01-26T05:57:33.654Z,145.75
2019-01-26T06:00:02.370Z,163.40
2019-01-26T06:02:31.949Z,159.07
2019-01-26T06:05:00.595Z,132.30
2019-01-26T06:07:29.516Z,148.28
2019-01-26T06:09:58.266Z,146.20
2019-01-26T06:12:27.293Z,150.40
2019-01-26T06:14:56.608Z,152.68
2019-01-26T06:17:25.350Z,138.52
2019-01-26T06:19:54.007Z,143.00
2019-01-26T06:22:22.978Z,151.32
2019-01-26T06:24:51.867Z,135.52
2019-01-26T06:27:20.759Z,141.55
2019-01-26T06:29:49.959Z,139.72
2019-01-26T06:32:18.601Z,141.43
2019-01-26T06:34:47.531Z,131.95
2019-01-26T06:37:16.176Z,117.50
2019-01-26T06:39:45.517Z,137.10
2019-01-26T06:42:14.180Z,135.48
2019-01-26T06:44:43.403Z,141.80
2019-01-26T06:47:12.029Z,131.70
2019-01-26T06:49:40.988Z,144.43
2019-01-26T06:52:09.727Z,146.82
2019-01-26T06:54:38.348Z,137.88
2019-01-26T06:57:07.122Z,137.68
2019-01-26T06:59:35.852Z,150.45
2019-01-26T07:02:04.821Z,144.47
2019-01-26T07:04:51.328Z,143.60
2019-01-26T07:07:20.932Z,139.18
2019-01-26T07:09:49.603Z,139.85
2019-01-26T07:12:18.343Z,135.43
2019-01-26T07:14:46.994Z,145.02
2019-01-26T07:17:15.641Z,147.82
2019-01-26T07:19:44.295Z,125.90
2019-01-26T07:22:13.254Z,134.20
2019-01-26T07:24:42.732Z,145.02
2019-01-26T07:27:11.653Z,140.10
2019-01-26T07:29:40.797Z,127.35
2019-01-26T07:32:09.469Z,115.97
2019-01-26T07:34:38.431Z,127.78
2019-01-26T07:37:07.428Z,127.17
2019-01-26T07:39:36.423Z,132.22
2019-01-26T07:42:05.261Z,126.82
2019-01-26T07:44:34.236Z,126.33
2019-01-26T07:47:03.191Z,122.13
2019-01-26T07:49:31.821Z,125.38
2019-01-26T07:52:01.179Z,127.53
2019-01-26T07:54:29.818Z,134.18
2019-01-26T07:56:58.757Z,125.72
2019-01-26T07:59:27.749Z,126.42
2019-01-26T08:01:56.392Z,134.20
2019-01-26T08:04:25.428Z,132.67
2019-01-26T08:06:54.433Z,149.60
2019-01-26T08:09:23.143Z,122.25
2019-01-26T08:11:52.112Z,122.82
2019-01-26T08:14:20.771Z,139.97
2019-01-26T08:16:49.509Z,138.52
2019-01-26T08:19:18.785Z,154.75
2019-01-26T08:21:47.407Z,153.25
2019-01-26T08:24:16.160Z,140.03
2019-01-26T08:26:45.359Z,147.40
2019-01-26T08:29:13.989Z,137.37
2019-01-26T08:31:42.893Z,154.38
2019-01-26T08:34:11.563Z,152.97
2019-01-26T08:37:26.173Z,145.50
2019-01-26T08:41:04.206Z,139.80
2019-01-26T08:47:22.913Z,147.85
2019-01-26T08:49:51.970Z,156.80
2019-01-26T08:52:20.635Z,162.88
2019-01-26T08:54:49.314Z,158.10
2019-01-26T08:57:17.950Z,158.93
2019-01-26T08:59:46.914Z,170.07
2019-01-26T09:02:45.302Z,157.60
2019-01-26T09:05:16.030Z,169.22
2019-01-26T09:07:44.909Z,150.78
2019-01-26T09:10:13.873Z,156.12
2019-01-26T09:12:43.117Z,165.35
2019-01-26T09:15:12.121Z,141.68
2019-01-26T09:17:40.950Z,142.85
2019-01-26T09:20:11.784Z,148.82
2019-01-26T09:22:40.646Z,146.85
2019-01-26T09:25:09.721Z,149.80
2019-01-26T09:27:39.153Z,143.95
2019-01-26T09:30:08.538Z,160.95
2019-01-26T09:32:37.264Z,155.60
2019-01-26T09:35:06.119Z,145.35
2019-01-26T09:37:34.760Z,161.60
2019-01-26T09:40:04.408Z,143.90
2019-01-26T09:42:33.109Z,139.62
2019-01-26T09:45:01.773Z,151.27
2019-01-26T09:47:30.422Z,128.97
2019-01-26T09:53:27.497Z,128.65
2019-01-26T09:55:56.797Z,139.62
2019-01-26T09:58:25.744Z,132.85
2019-01-26T10:00:54.488Z,123.87
2019-01-26T10:03:23.408Z,126.80
2019-01-26T10:05:52.052Z,125.40
2019-01-26T10:08:20.987Z,127.22
2019-01-26T10:10:49.876Z,109.00
2019-01-26T10:13:18.498Z,130.07
2019-01-26T10:15:50.936Z,120.67
2019-01-26T10:18:19.815Z,104.30
2019-01-26T10:20:59.729Z,132.85
2019-01-26T10:23:28.630Z,123.58
2019-01-26T10:26:00.174Z,126.97
2019-01-26T10:28:29.339Z,116.70
2019-01-26T10:31:02.394Z,130.45
2019-01-26T10:33:37.590Z,121.50
2019-01-26T10:36:25.567Z,134.37
2019-01-26T10:42:57.453Z,139.72
2019-01-26T10:45:27.355Z,129.23
2019-01-26T10:47:56.384Z,137.92
2019-01-26T10:50:25.375Z,124.38
2019-01-26T10:52:54.152Z,128.80
2019-01-26T10:55:23.162Z,135.15
2019-01-26T10:57:52.023Z,144.40
2019-01-26T11:00:22.184Z,136.18
2019-01-26T11:02:51.160Z,139.40
2019-01-26T11:05:20.260Z,149.40
2019-01-26T11:07:49.356Z,142.77
2019-01-26T11:10:18.346Z,209.97
2019-01-26T11:12:47.076Z,178.95
2019-01-26T11:15:16.040Z,166.82
2019-01-26T11:18:26.829Z,144.85
2019-01-26T11:20:55.757Z,150.57
2019-01-26T11:23:24.641Z,140.95
2019-01-26T11:25:53.301Z,135.70
2019-01-26T11:28:21.983Z,143.10
2019-01-26T11:30:50.645Z,183.37
2019-01-26T11:33:19.651Z,130.30
2019-01-26T11:35:48.353Z,178.97
2019-01-26T11:38:17.339Z,142.07
2019-01-26T11:40:46.027Z,184.48
2019-01-26T11:43:14.769Z,159.93
2019-01-26T11:46:03.779Z,182.95
2019-01-26T11:48:35.454Z,154.95
2019-01-26T11:51:14.922Z,129.40
2019-01-26T11:53:43.912Z,155.50
2019-01-26T11:56:37.745Z,156.67
2019-01-26T11:59:06.661Z,134.27
2019-01-26T12:01:42.693Z,131.10
2019-01-26T12:04:19.607Z,174.37
2019-01-26T12:06:56.509Z,124.43
2019-01-26T12:09:25.332Z,120.17
2019-01-26T12:11:54.249Z,158.78
2019-01-26T12:14:23.598Z,136.83
2019-01-26T12:16:52.553Z,131.13
2019-01-26T12:19:22.496Z,130.90
2019-01-26T12:21:51.540Z,148.13
2019-01-26T12:24:26.760Z,120.77
2019-01-26T12:28:18.903Z,138.62
2019-01-26T12:30:52.676Z,134.53
2019-01-26T12:33:21.717Z,136.83
2019-01-26T12:35:50.711Z,115.00
2019-01-26T12:38:20.413Z,123.53
2019-01-26T12:40:49.634Z,118.37
2019-01-26T12:43:18.359Z,125.00
2019-01-26T12:45:47.305Z,113.93
2019-01-26T12:48:15.955Z,118.80
2019-01-26T12:50:44.708Z,119.17
2019-01-26T12:53:13.687Z,122.80
2019-01-26T12:55:42.851Z,122.77
2019-01-26T12:58:11.612Z,135.53
2019-01-26T13:00:40.368Z,127.50
2019-01-26T13:03:09.428Z,122.97
2019-01-26T13:05:38.495Z,106.13
2019-01-26T13:08:07.615Z,117.77
2019-01-26T13:10:39.730Z,101.17
2019-01-26T13:13:08.471Z,109.33
2019-01-26T13:15:37.564Z,100.23
2019-01-26T13:18:06.388Z,96.33
2019-01-26T13:20:35.095Z,87.90
2019-01-26T13:23:04.535Z,107.80
2019-01-26T13:25:33.830Z,84.73
2019-01-26T13:28:02.626Z,80.77
2019-01-26T13:30:31.679Z,99.73
2019-01-26T13:33:00.324Z,86.73
2019-01-26T13:35:29.051Z,77.53
2019-01-26T13:37:58.080Z,84.67
2019-01-26T13:40:26.876Z,82.80
2019-01-26T13:42:55.875Z,72.23
2019-01-26T13:45:24.902Z,79.27
2019-01-26T13:47:53.653Z,75.77
2019-01-26T13:50:22.321Z,62.57
2019-01-26T13:52:51.570Z,71.47
2019-01-26T13:55:20.813Z,77.40
2019-01-26T13:57:49.744Z,70.67
2019-01-26T14:00:22.987Z,70.10
2019-01-26T14:02:51.994Z,68.50
2019-01-26T14:05:21.120Z,72.90
2019-01-26T14:07:49.777Z,71.40
2019-01-26T14:10:20.405Z,67.90
2019-01-26T14:12:49.294Z,67.83
2019-01-26T14:15:18.547Z,64.90
2019-01-26T14:17:47.660Z,63.03
2019-01-26T14:20:24.476Z,53.43
2019-01-26T14:22:53.469Z,60.13
2019-01-26T14:25:22.417Z,56.13
2019-01-26T14:27:53.263Z,57.47
2019-01-26T14:30:31.262Z,55.70
2019-01-26T14:33:00.189Z,61.63
2019-01-26T14:35:29.242Z,56.67
2019-01-26T14:37:58.115Z,53.40
2019-01-26T14:40:26.798Z,58.57
2019-01-26T14:42:58.857Z,55.17
2019-01-26T14:45:29.175Z,45.50
2019-01-26T14:47:58.508Z,53.63
2019-01-26T14:50:27.263Z,46.97
2019-01-26T14:52:56.030Z,45.40
2019-01-26T14:55:27.554Z,51.73
2019-01-26T14:57:56.467Z,43.00
2019-01-26T15:00:30.715Z,45.03
2019-01-26T15:02:59.738Z,46.67
2019-01-26T15:05:29.092Z,38.37
2019-01-26T15:07:58.267Z,38.60
2019-01-26T15:10:27.363Z,37.20
2019-01-26T15:12:56.326Z,38.63
2019-01-26T15:15:25.384Z,35.30
2019-01-26T15:17:54.327Z,34.33
2019-01-26T15:20:27.256Z,33.10
2019-01-26T15:22:56.655Z,36.57
2019-01-26T15:25:26.054Z,31.50
2019-01-26T15:27:54.682Z,39.57
2019-01-26T15:30:27.641Z,35.63
2019-01-26T15:32:56.502Z,39.00
2019-01-26T15:35:25.272Z,54.73
2019-01-26T15:37:54.058Z,41.07
2019-01-26T15:40:23.009Z,35.60
2019-01-26T15:42:53.433Z,39.33
2019-01-26T15:45:51.818Z,41.53
2019-01-26T15:48:27.653Z,38.90
2019-01-26T15:50:56.866Z,43.40
2019-01-26T15:53:25.516Z,41.03
2019-01-26T15:55:54.599Z,43.33
2019-01-26T15:58:23.302Z,39.33
2019-01-26T16:00:55.324Z,37.03
2019-01-26T16:03:23.945Z,34.80
2019-01-26T16:05:52.836Z,40.30
2019-01-26T16:08:21.449Z,34.63
2019-01-26T16:10:50.164Z,37.80
2019-01-26T16:13:19.159Z,40.70
2019-01-26T16:15:48.163Z,38.40
2019-01-26T16:18:17.066Z,33.63
2019-01-26T16:20:45.707Z,48.37
2019-01-26T16:23:14.647Z,39.93
2019-01-26T16:25:43.701Z,49.63
2019-01-26T16:28:12.381Z,44.83
2019-01-26T16:43:29.038Z,53.60
2019-01-26T16:45:57.997Z,48.77
2019-01-26T16:48:26.903Z,54.37
2019-01-26T16:50:56.031Z,47.57
2019-01-26T16:53:26.048Z,61.93
2019-01-26T16:55:54.739Z,55.30
2019-01-26T16:58:23.426Z,61.13
2019-01-26T17:00:55.814Z,58.73
2019-01-26T17:03:25.373Z,63.60
2019-01-26T17:05:54.278Z,63.17
2019-01-26T17:08:23.156Z,62.90
2019-01-26T17:11:03.056Z,76.97
2019-01-26T17:13:36.232Z,71.73
2019-01-26T17:16:05.180Z,73.70
2019-01-26T17:18:34.074Z,73.47
2019-01-26T17:21:02.962Z,77.87
2019-01-26T17:23:31.597Z,69.37
2019-01-26T17:26:00.625Z,81.50
2019-01-26T17:28:29.754Z,76.65
2019-01-26T17:30:58.394Z,69.70
2019-01-26T17:33:27.578Z,71.43
2019-01-26T17:35:56.467Z,75.73
2019-01-26T17:38:25.248Z,96.57
2019-01-26T17:40:54.684Z,92.57
2019-01-26T17:43:24.061Z,86.07
2019-01-26T17:45:52.969Z,86.28
2019-01-26T17:48:21.726Z,84.10
2019-01-26T17:50:50.595Z,77.30
2019-01-26T17:53:19.462Z,92.43
2019-01-26T17:55:48.365Z,86.33
2019-01-26T17:58:17.021Z,71.40
2019-01-26T18:00:52.189Z,76.80
2019-01-26T18:03:21.683Z,78.90
2019-01-26T18:05:50.717Z,59.53
2019-01-26T18:08:19.660Z,76.33
2019-01-26T18:10:48.695Z,70.00
2019-01-26T18:13:17.779Z,85.07
2019-01-26T18:15:46.937Z,59.50
2019-01-26T18:18:16.065Z,60.90
2019-01-26T18:20:49.293Z,69.73
2019-01-26T18:23:17.739Z,62.17
2019-01-26T18:25:46.795Z,68.87
2019-01-26T18:28:15.614Z,60.07
2019-01-26T18:30:44.341Z,58.93
2019-01-26T18:33:13.068Z,69.05
2019-01-26T18:35:42.037Z,69.50
2019-01-26T18:38:10.953Z,64.57
2019-01-26T18:40:39.902Z,62.40
2019-01-26T18:43:08.781Z,70.97
2019-01-26T18:45:37.760Z,65.77
2019-01-26T18:48:07.430Z,62.53
2019-01-26T18:50:38.082Z,75.17
2019-01-26T18:53:07.049Z,79.60
2019-01-26T18:55:35.789Z,77.43
2019-01-26T18:58:04.734Z,75.40
2019-01-26T19:00:36.487Z,72.58
2019-01-26T19:03:21.897Z,74.80
2019-01-26T19:05:51.614Z,74.07
2019-01-26T19:08:20.506Z,65.73
2019-01-26T19:10:49.404Z,76.40
2019-01-26T19:13:18.114Z,77.77
2019-01-26T19:15:46.754Z,73.67
2019-01-26T19:18:15.416Z,74.62
2019-01-26T19:20:44.507Z,66.23
2019-01-26T19:23:13.281Z,79.63
2019-01-26T19:25:42.199Z,65.93
2019-01-26T19:28:13.980Z,65.47
2019-01-26T19:30:42.708Z,62.50
2019-01-26T19:33:11.401Z,62.30
2019-01-26T19:35:40.658Z,61.67
2019-01-26T19:38:09.641Z,61.40
2019-01-26T19:40:38.362Z,56.50
2019-01-26T19:43:08.725Z,53.77
2019-01-26T19:45:37.668Z,55.37
2019-01-26T19:48:06.661Z,60.27
2019-01-26T19:50:35.318Z,58.53
2019-01-26T19:53:04.461Z,54.77
2019-01-26T19:55:33.433Z,58.43
2019-01-26T19:58:02.417Z,51.30
2019-01-26T20:00:31.295Z,52.07
2019-01-26T20:03:00.011Z,54.83
2019-01-26T20:05:29.078Z,51.70
2019-01-26T20:07:58.186Z,55.70
2019-01-26T20:10:27.207Z,50.73
2019-01-26T20:12:55.837Z,55.23
2019-01-26T20:15:24.736Z,58.30
2019-01-26T20:17:53.738Z,53.07
2019-01-26T20:20:25.501Z,56.87
2019-01-26T20:22:54.491Z,51.18
2019-01-26T20:25:23.454Z,51.53
2019-01-26T20:27:52.349Z,58.70
2019-01-26T20:30:26.973Z,52.07
2019-01-26T20:32:56.108Z,64.13
2019-01-26T20:35:24.818Z,57.77
2019-01-26T20:37:53.566Z,54.53
2019-01-26T20:40:23.306Z,51.40
2019-01-26T20:42:52.254Z,51.33
2019-01-26T20:45:23.621Z,46.97
2019-01-26T20:47:52.510Z,43.48
2019-01-26T20:50:21.293Z,47.13
2019-01-26T20:52:50.330Z,46.53
2019-01-26T20:55:21.355Z,48.43
2019-01-26T20:57:50.381Z,43.60
2019-01-26T21:00:21.598Z,46.70
2019-01-26T21:02:50.561Z,44.33
2019-01-26T21:05:19.196Z,42.43
2019-01-26T21:07:47.936Z,44.60
2019-01-26T21:10:19.350Z,44.43
2019-01-26T21:12:50.050Z,45.77
2019-01-26T21:15:21.115Z,44.23
2019-01-26T21:17:50.056Z,47.63
2019-01-26T21:20:19.728Z,43.03
2019-01-26T21:22:49.042Z,38.87
2019-01-26T21:25:17.997Z,41.57
2019-01-26T21:27:47.095Z,35.20
2019-01-26T21:30:18.986Z,35.50
2019-01-26T21:32:47.994Z,32.60
2019-01-26T21:35:16.697Z,43.03
2019-01-26T21:37:45.834Z,39.30
2019-01-26T21:40:25.790Z,38.13
2019-01-26T21:42:58.675Z,39.10
2019-01-26T21:45:27.695Z,32.33
2019-01-26T21:47:56.458Z,33.10
2019-01-26T21:50:30.068Z,30.90
2019-01-26T21:52:59.397Z,28.27
2019-01-26T21:55:29.700Z,32.33
2019-01-26T21:57:58.861Z,25.57
2019-01-26T22:00:31.647Z,23.87
2019-01-26T22:03:06.318Z,21.63
2019-01-26T22:05:38.080Z,24.53
2019-01-26T22:08:08.260Z,24.03
2019-01-26T22:10:40.024Z,20.87
2019-01-26T22:13:10.381Z,23.43
2019-01-26T22:15:40.486Z,21.33
2019-01-26T22:18:10.437Z,22.67
2019-01-26T22:20:40.237Z,20.67
2019-01-26T22:23:09.596Z,22.33
2019-01-26T22:25:39.150Z,20.23
2019-01-26T22:28:08.398Z,25.17
2019-01-26T22:30:37.432Z,22.20
2019-01-26T22:33:06.765Z,19.70
2019-01-26T22:35:35.938Z,21.17
2019-01-26T22:38:05.547Z,22.70
2019-01-26T22:40:36.270Z,26.23
2019-01-26T22:43:05.571Z,23.00
2019-01-26T22:45:34.463Z,19.50
2019-01-26T22:48:03.223Z,34.00
2019-01-26T22:50:32.569Z,22.87
2019-01-26T22:53:01.412Z,26.73
2019-01-26T22:55:31.320Z,26.70
2019-01-26T22:58:00.312Z,23.33
2019-01-26T23:00:50.414Z,27.47
2019-01-26T23:03:21.065Z,28.13
2019-01-26T23:06:16.045Z,29.53
2019-01-26T23:08:45.786Z,22.37
2019-01-26T23:12:01.963Z,26.97
2019-01-26T23:14:49.079Z,25.07
2019-01-26T23:17:45.079Z,27.10
2019-01-26T23:20:24.219Z,29.37
2019-01-26T23:23:46.587Z,26.93
2019-01-26T23:26:46.388Z,26.30
2019-01-26T23:29:55.482Z,27.17
2019-01-26T23:32:24.388Z,29.80
2019-01-26T23:34:53.496Z,32.50
2019-01-26T23:37:22.730Z,33.87
2019-01-26T23:39:51.583Z,32.87
2019-01-26T23:42:20.387Z,32.90
2019-01-26T23:44:49.504Z,36.53
2019-01-26T23:47:18.132Z,43.60
2019-01-26T23:49:46.763Z,38.87
2019-01-26T23:52:15.747Z,35.77
2019-01-26T23:54:44.409Z,38.87
2019-01-26T23:57:23.746Z,40.17
2019-01-26T23:59:53.127Z,39.07
